sensor_id;sensor_type;location;lat;lon;timestamp;pressure;altitude;pressure_sealevel;temperature;humidity
19831;BME280;10076;52.008;4.708;2023-05-01T00:01:15;101809.97;;;15.11;100.00
19831;BME280;10076;52.008;4.708;2023-05-01T00:03:41;101811.41;;;15.15;100.00
19831;BME280;10076;52.008;4.708;2023-05-01T00:06:07;101804.19;;;15.17;100.00
19831;BME280;10076;52.008;4.708;2023-05-01T00:08:33;101801.97;;;15.11;100.00
19831;BME280;10076;52.008;4.708;2023-05-01T00:11:02;101800.59;;;15.06;100.00
19831;BME280;10076;52.008;4.708;2023-05-01T00:13:27;101795.34;;;14.93;100.00
19831;BME280;10076;52.008;4.708;2023-05-01T00:15:53;101785.03;;;14.89;100.00
19831;BME280;10076;52.008;4.708;2023-05-01T00:18:19;101787.50;;;14.79;100.00
19831;BME280;10076;52.008;4.708;2023-05-01T00:20:45;101786.56;;;14.80;100.00
19831;BME280;10076;52.008;4.708;2023-05-01T00:23:10;101782.13;;;14.68;100.00
19831;BME280;10076;52.008;4.708;2023-05-01T00:25:36;101775.66;;;14.72;100.00
19831;BME280;10076;52.008;4.708;2023-05-01T00:28:02;101776.38;;;14.74;100.00
19831;BME280;10076;52.008;4.708;2023-05-01T00:30:27;101774.19;;;14.92;100.00
19831;BME280;10076;52.008;4.708;2023-05-01T00:32:53;101771.88;;;14.87;100.00
19831;BME280;10076;52.008;4.708;2023-05-01T00:35:18;101771.47;;;14.81;100.00
19831;BME280;10076;52.008;4.708;2023-05-01T00:37:43;101766.69;;;14.73;100.00
19831;BME280;10076;52.008;4.708;2023-05-01T00:40:09;101765.97;;;14.71;100.00
19831;BME280;10076;52.008;4.708;2023-05-01T00:42:35;101760.88;;;14.68;100.00
19831;BME280;10076;52.008;4.708;2023-05-01T00:45:06;101762.75;;;14.79;100.00
19831;BME280;10076;52.008;4.708;2023-05-01T00:47:34;101753.75;;;14.69;100.00
19831;BME280;10076;52.008;4.708;2023-05-01T00:50:00;101752.13;;;14.79;100.00
19831;BME280;10076;52.008;4.708;2023-05-01T00:52:25;101751.44;;;14.88;100.00
19831;BME280;10076;52.008;4.708;2023-05-01T00:54:50;101745.09;;;14.78;100.00
19831;BME280;10076;52.008;4.708;2023-05-01T00:57:19;101746.97;;;14.88;100.00
19831;BME280;10076;52.008;4.708;2023-05-01T00:59:45;101745.06;;;14.90;100.00
19831;BME280;10076;52.008;4.708;2023-05-01T01:02:11;101738.25;;;14.86;100.00
19831;BME280;10076;52.008;4.708;2023-05-01T01:04:44;101731.41;;;14.95;100.00
19831;BME280;10076;52.008;4.708;2023-05-01T01:07:21;101735.63;;;14.97;100.00
19831;BME280;10076;52.008;4.708;2023-05-01T01:10:01;101720.53;;;14.98;100.00
19831;BME280;10076;52.008;4.708;2023-05-01T01:12:53;101719.47;;;15.00;100.00
19831;BME280;10076;52.008;4.708;2023-05-01T01:15:41;101721.97;;;14.91;100.00
19831;BME280;10076;52.008;4.708;2023-05-01T01:18:11;101717.13;;;14.96;100.00
19831;BME280;10076;52.008;4.708;2023-05-01T01:23:44;101705.97;;;14.80;100.00
19831;BME280;10076;52.008;4.708;2023-05-01T01:29:21;101695.19;;;14.81;100.00
19831;BME280;10076;52.008;4.708;2023-05-01T01:35:02;101687.25;;;14.92;100.00
19831;BME280;10076;52.008;4.708;2023-05-01T01:40:21;101673.72;;;14.84;100.00
19831;BME280;10076;52.008;4.708;2023-05-01T01:42:52;101665.50;;;14.87;100.00
19831;BME280;10076;52.008;4.708;2023-05-01T01:45:28;101670.88;;;14.75;100.00
19831;BME280;10076;52.008;4.708;2023-05-01T01:47:55;101661.88;;;14.88;100.00
19831;BME280;10076;52.008;4.708;2023-05-01T01:50:24;101659.88;;;14.79;100.00
19831;BME280;10076;52.008;4.708;2023-05-01T01:52:50;101651.91;;;14.79;100.00
19831;BME280;10076;52.008;4.708;2023-05-01T01:55:21;101652.47;;;14.95;100.00
19831;BME280;10076;52.008;4.708;2023-05-01T01:57:49;101656.72;;;14.98;100.00
19831;BME280;10076;52.008;4.708;2023-05-01T02:00:16;101648.78;;;14.85;100.00
19831;BME280;10076;52.008;4.708;2023-05-01T02:02:44;101659.22;;;14.88;100.00
19831;BME280;10076;52.008;4.708;2023-05-01T02:05:14;101652.38;;;14.73;100.00
19831;BME280;10076;52.008;4.708;2023-05-01T02:07:40;101664.81;;;14.73;100.00
19831;BME280;10076;52.008;4.708;2023-05-01T02:10:08;101647.84;;;14.86;100.00
19831;BME280;10076;52.008;4.708;2023-05-01T02:12:36;101644.34;;;14.62;100.00
19831;BME280;10076;52.008;4.708;2023-05-01T02:15:02;101637.94;;;14.88;100.00
19831;BME280;10076;52.008;4.708;2023-05-01T02:17:29;101639.16;;;14.84;100.00
19831;BME280;10076;52.008;4.708;2023-05-01T02:19:56;101639.34;;;14.81;100.00
19831;BME280;10076;52.008;4.708;2023-05-01T02:22:22;101631.47;;;14.69;100.00
19831;BME280;10076;52.008;4.708;2023-05-01T02:24:50;101625.19;;;14.70;100.00
19831;BME280;10076;52.008;4.708;2023-05-01T02:27:19;101626.25;;;14.67;100.00
19831;BME280;10076;52.008;4.708;2023-05-01T02:29:49;101625.25;;;14.57;100.00
19831;BME280;10076;52.008;4.708;2023-05-01T02:32:15;101628.41;;;14.62;100.00
19831;BME280;10076;52.008;4.708;2023-05-01T02:34:41;101621.66;;;14.69;100.00
19831;BME280;10076;52.008;4.708;2023-05-01T02:37:07;101608.34;;;14.58;100.00
19831;BME280;10076;52.008;4.708;2023-05-01T02:39:35;101615.59;;;14.67;100.00
19831;BME280;10076;52.008;4.708;2023-05-01T02:42:02;101618.13;;;14.58;100.00
19831;BME280;10076;52.008;4.708;2023-05-01T02:44:31;101619.34;;;14.65;100.00
19831;BME280;10076;52.008;4.708;2023-05-01T02:47:03;101612.94;;;14.67;100.00
19831;BME280;10076;52.008;4.708;2023-05-01T02:49:32;101618.75;;;14.61;100.00
19831;BME280;10076;52.008;4.708;2023-05-01T02:51:58;101604.38;;;14.64;100.00
19831;BME280;10076;52.008;4.708;2023-05-01T02:54:24;101603.69;;;14.73;100.00
19831;BME280;10076;52.008;4.708;2023-05-01T02:56:50;101601.84;;;14.73;100.00
19831;BME280;10076;52.008;4.708;2023-05-01T02:59:16;101589.63;;;14.71;100.00
19831;BME280;10076;52.008;4.708;2023-05-01T03:01:41;101601.13;;;14.71;100.00
19831;BME280;10076;52.008;4.708;2023-05-01T03:04:06;101591.81;;;14.66;100.00
19831;BME280;10076;52.008;4.708;2023-05-01T03:06:32;101587.19;;;14.57;100.00
19831;BME280;10076;52.008;4.708;2023-05-01T03:08:57;101588.44;;;14.64;100.00
19831;BME280;10076;52.008;4.708;2023-05-01T03:11:22;101587.31;;;14.55;100.00
19831;BME280;10076;52.008;4.708;2023-05-01T03:13:48;101584.41;;;14.58;100.00
19831;BME280;10076;52.008;4.708;2023-05-01T03:16:13;101583.78;;;14.55;100.00
19831;BME280;10076;52.008;4.708;2023-05-01T03:18:39;101582.72;;;14.57;100.00
19831;BME280;10076;52.008;4.708;2023-05-01T03:21:04;101580.19;;;14.56;100.00
19831;BME280;10076;52.008;4.708;2023-05-01T03:23:29;101575.47;;;14.59;100.00
19831;BME280;10076;52.008;4.708;2023-05-01T03:25:55;101566.75;;;14.57;100.00
19831;BME280;10076;52.008;4.708;2023-05-01T03:28:21;101565.81;;;14.58;100.00
19831;BME280;10076;52.008;4.708;2023-05-01T03:30:49;101567.53;;;14.70;100.00
19831;BME280;10076;52.008;4.708;2023-05-01T03:33:15;101563.28;;;14.57;100.00
19831;BME280;10076;52.008;4.708;2023-05-01T03:35:41;101560.75;;;14.66;100.00
19831;BME280;10076;52.008;4.708;2023-05-01T03:38:06;101555.91;;;14.60;100.00
19831;BME280;10076;52.008;4.708;2023-05-01T03:40:32;101554.00;;;14.73;100.00
19831;BME280;10076;52.008;4.708;2023-05-01T03:42:58;101556.16;;;14.68;100.00
19831;BME280;10076;52.008;4.708;2023-05-01T03:45:23;101558.06;;;14.55;100.00
19831;BME280;10076;52.008;4.708;2023-05-01T03:47:48;101551.78;;;14.56;100.00
19831;BME280;10076;52.008;4.708;2023-05-01T03:50:14;101554.47;;;14.67;100.00
19831;BME280;10076;52.008;4.708;2023-05-01T03:52:40;101550.84;;;14.68;100.00
19831;BME280;10076;52.008;4.708;2023-05-01T03:55:06;101541.41;;;14.64;100.00
19831;BME280;10076;52.008;4.708;2023-05-01T03:57:32;101539.03;;;14.72;100.00
19831;BME280;10076;52.008;4.708;2023-05-01T03:59:57;101544.53;;;14.58;100.00
19831;BME280;10076;52.008;4.708;2023-05-01T04:02:23;101547.69;;;14.63;100.00
19831;BME280;10076;52.008;4.708;2023-05-01T04:04:48;101543.25;;;14.64;100.00
19831;BME280;10076;52.008;4.708;2023-05-01T04:07:14;101538.94;;;14.50;100.00
19831;BME280;10076;52.008;4.708;2023-05-01T04:09:39;101538.69;;;14.43;100.00
19831;BME280;10076;52.008;4.708;2023-05-01T04:12:04;101541.97;;;14.46;100.00
19831;BME280;10076;52.008;4.708;2023-05-01T04:14:29;101535.56;;;14.49;100.00
19831;BME280;10076;52.008;4.708;2023-05-01T04:16:56;101536.28;;;14.50;100.00
19831;BME280;10076;52.008;4.708;2023-05-01T04:19:22;101540.66;;;14.51;100.00
19831;BME280;10076;52.008;4.708;2023-05-01T04:21:47;101537.50;;;14.47;100.00
19831;BME280;10076;52.008;4.708;2023-05-01T04:24:12;101537.03;;;14.52;100.00
19831;BME280;10076;52.008;4.708;2023-05-01T04:26:38;101533.88;;;14.48;100.00
19831;BME280;10076;52.008;4.708;2023-05-01T04:29:03;101531.97;;;14.50;100.00
19831;BME280;10076;52.008;4.708;2023-05-01T04:31:29;101532.69;;;14.62;100.00
19831;BME280;10076;52.008;4.708;2023-05-01T04:33:54;101528.38;;;14.61;100.00
19831;BME280;10076;52.008;4.708;2023-05-01T04:36:20;101529.34;;;14.71;100.00
19831;BME280;10076;52.008;4.708;2023-05-01T04:38:45;101533.25;;;14.78;100.00
19831;BME280;10076;52.008;4.708;2023-05-01T04:41:11;101532.00;;;14.60;100.00
19831;BME280;10076;52.008;4.708;2023-05-01T04:43:36;101524.34;;;14.56;100.00
19831;BME280;10076;52.008;4.708;2023-05-01T04:46:04;101533.88;;;14.48;100.00
19831;BME280;10076;52.008;4.708;2023-05-01T04:48:29;101527.22;;;14.53;100.00
19831;BME280;10076;52.008;4.708;2023-05-01T04:50:55;101524.47;;;14.54;100.00
19831;BME280;10076;52.008;4.708;2023-05-01T04:53:20;101530.91;;;14.63;100.00
19831;BME280;10076;52.008;4.708;2023-05-01T04:55:46;101527.75;;;14.58;100.00
19831;BME280;10076;52.008;4.708;2023-05-01T04:58:11;101525.66;;;14.50;100.00
19831;BME280;10076;52.008;4.708;2023-05-01T05:00:36;101536.28;;;14.50;100.00
19831;BME280;10076;52.008;4.708;2023-05-01T05:03:02;101528.38;;;14.61;100.00
19831;BME280;10076;52.008;4.708;2023-05-01T05:05:27;101526.22;;;14.66;100.00
19831;BME280;10076;52.008;4.708;2023-05-01T05:07:52;101531.78;;;14.85;100.00
19831;BME280;10076;52.008;4.708;2023-05-01T05:10:18;101531.41;;;14.79;100.00
19831;BME280;10076;52.008;4.708;2023-05-01T05:12:43;101532.03;;;14.82;100.00
19831;BME280;10076;52.008;4.708;2023-05-01T05:15:08;101529.00;;;14.76;100.00
19831;BME280;10076;52.008;4.708;2023-05-01T05:17:34;101526.44;;;14.74;100.00
19831;BME280;10076;52.008;4.708;2023-05-01T05:19:59;101527.16;;;14.65;100.00
19831;BME280;10076;52.008;4.708;2023-05-01T05:22:25;101529.09;;;14.63;100.00
19831;BME280;10076;52.008;4.708;2023-05-01T05:24:53;101528.63;;;14.69;100.00
19831;BME280;10076;52.008;4.708;2023-05-01T05:27:20;101528.41;;;14.72;100.00
19831;BME280;10076;52.008;4.708;2023-05-01T05:29:45;101521.13;;;14.74;100.00
19831;BME280;10076;52.008;4.708;2023-05-01T05:32:10;101526.22;;;14.77;100.00
19831;BME280;10076;52.008;4.708;2023-05-01T05:34:36;101526.72;;;14.82;100.00
19831;BME280;10076;52.008;4.708;2023-05-01T05:37:02;101528.28;;;14.85;100.00
19831;BME280;10076;52.008;4.708;2023-05-01T05:39:27;101533.75;;;14.94;100.00
19831;BME280;10076;52.008;4.708;2023-05-01T05:41:52;101526.25;;;14.99;100.00
19831;BME280;10076;52.008;4.708;2023-05-01T05:44:18;101522.84;;;14.97;100.00
19831;BME280;10076;52.008;4.708;2023-05-01T05:46:44;101517.06;;;15.03;100.00
19831;BME280;10076;52.008;4.708;2023-05-01T05:49:09;101522.16;;;15.06;100.00
19831;BME280;10076;52.008;4.708;2023-05-01T05:51:35;101516.59;;;15.09;100.00
19831;BME280;10076;52.008;4.708;2023-05-01T05:54:00;101520.94;;;15.21;100.00
19831;BME280;10076;52.008;4.708;2023-05-01T05:56:26;101518.78;;;15.26;100.00
19831;BME280;10076;52.008;4.708;2023-05-01T05:58:51;101514.22;;;15.28;100.00
19831;BME280;10076;52.008;4.708;2023-05-01T06:01:16;101519.41;;;15.29;100.00
19831;BME280;10076;52.008;4.708;2023-05-01T06:03:42;101515.91;;;15.40;100.00
19831;BME280;10076;52.008;4.708;2023-05-01T06:06:07;101513.72;;;15.34;100.00
19831;BME280;10076;52.008;4.708;2023-05-01T06:08:32;101512.25;;;15.52;100.00
19831;BME280;10076;52.008;4.708;2023-05-01T06:11:00;101516.25;;;15.68;100.00
19831;BME280;10076;52.008;4.708;2023-05-01T06:13:25;101515.13;;;15.82;100.00
19831;BME280;10076;52.008;4.708;2023-05-01T06:15:51;101512.69;;;15.79;100.00
19831;BME280;10076;52.008;4.708;2023-05-01T06:18:16;101515.69;;;15.96;100.00
19831;BME280;10076;52.008;4.708;2023-05-01T06:20:41;101519.16;;;16.07;100.00
19831;BME280;10076;52.008;4.708;2023-05-01T06:23:07;101509.44;;;16.06;100.00
19831;BME280;10076;52.008;4.708;2023-05-01T06:25:33;101520.94;;;16.18;100.00
19831;BME280;10076;52.008;4.708;2023-05-01T06:27:58;101523.81;;;16.37;100.00
19831;BME280;10076;52.008;4.708;2023-05-01T06:30:24;101519.91;;;16.41;100.00
19831;BME280;10076;52.008;4.708;2023-05-01T06:32:49;101520.28;;;16.57;100.00
19831;BME280;10076;52.008;4.708;2023-05-01T06:35:15;101526.34;;;16.59;100.00
19831;BME280;10076;52.008;4.708;2023-05-01T06:37:40;101524.28;;;16.62;100.00
19831;BME280;10076;52.008;4.708;2023-05-01T06:40:07;101522.06;;;16.67;100.00
19831;BME280;10076;52.008;4.708;2023-05-01T06:42:32;101526.50;;;16.77;100.00
19831;BME280;10076;52.008;4.708;2023-05-01T06:44:58;101515.41;;;16.82;100.00
19831;BME280;10076;52.008;4.708;2023-05-01T06:47:23;101517.31;;;16.91;100.00
19831;BME280;10076;52.008;4.708;2023-05-01T06:49:48;101520.78;;;17.12;100.00
19831;BME280;10076;52.008;4.708;2023-05-01T06:52:13;101527.56;;;17.25;100.00
19831;BME280;10076;52.008;4.708;2023-05-01T06:54:39;101525.78;;;17.26;100.00
19831;BME280;10076;52.008;4.708;2023-05-01T06:57:05;101523.19;;;17.35;100.00
19831;BME280;10076;52.008;4.708;2023-05-01T06:59:30;101516.69;;;17.28;100.00
19831;BME280;10076;52.008;4.708;2023-05-01T07:01:56;101524.22;;;17.23;100.00
19831;BME280;10076;52.008;4.708;2023-05-01T07:04:21;101524.69;;;17.28;100.00
19831;BME280;10076;52.008;4.708;2023-05-01T07:06:47;101522.03;;;17.28;100.00
19831;BME280;10076;52.008;4.708;2023-05-01T07:09:13;101522.19;;;17.36;100.00
19831;BME280;10076;52.008;4.708;2023-05-01T07:11:39;101530.22;;;17.45;100.00
19831;BME280;10076;52.008;4.708;2023-05-01T07:14:04;101528.16;;;17.58;100.00
19831;BME280;10076;52.008;4.708;2023-05-01T07:16:30;101522.28;;;17.64;100.00
19831;BME280;10076;52.008;4.708;2023-05-01T07:18:56;101532.84;;;17.75;100.00
19831;BME280;10076;52.008;4.708;2023-05-01T07:21:21;101527.28;;;17.97;100.00
19831;BME280;10076;52.008;4.708;2023-05-01T07:23:46;101529.84;;;18.08;100.00
19831;BME280;10076;52.008;4.708;2023-05-01T07:26:12;101526.47;;;18.15;100.00
19831;BME280;10076;52.008;4.708;2023-05-01T07:28:37;101531.00;;;18.34;100.00
19831;BME280;10076;52.008;4.708;2023-05-01T07:31:03;101528.91;;;18.28;100.00
19831;BME280;10076;52.008;4.708;2023-05-01T07:33:28;101533.00;;;18.22;100.00
19831;BME280;10076;52.008;4.708;2023-05-01T07:35:53;101534.50;;;18.34;100.00
19831;BME280;10076;52.008;4.708;2023-05-01T07:38:19;101533.41;;;18.46;100.00
19831;BME280;10076;52.008;4.708;2023-05-01T07:40:44;101535.50;;;18.62;100.00
19831;BME280;10076;52.008;4.708;2023-05-01T07:43:09;101532.16;;;18.60;100.00
19831;BME280;10076;52.008;4.708;2023-05-01T07:45:37;101529.63;;;18.39;100.00
19831;BME280;10076;52.008;4.708;2023-05-01T07:48:03;101541.84;;;18.32;100.00
19831;BME280;10076;52.008;4.708;2023-05-01T07:50:29;101540.81;;;18.05;100.00
19831;BME280;10076;52.008;4.708;2023-05-01T07:52:54;101536.03;;;18.08;100.00
19831;BME280;10076;52.008;4.708;2023-05-01T07:55:23;101535.47;;;18.05;100.00
19831;BME280;10076;52.008;4.708;2023-05-01T07:57:49;101525.59;;;18.05;100.00
19831;BME280;10076;52.008;4.708;2023-05-01T08:00:15;101524.59;;;17.97;100.00
19831;BME280;10076;52.008;4.708;2023-05-01T08:02:41;101523.38;;;18.01;100.00
19831;BME280;10076;52.008;4.708;2023-05-01T08:05:06;101528.28;;;18.15;100.00
19831;BME280;10076;52.008;4.708;2023-05-01T08:07:32;101528.50;;;18.32;100.00
19831;BME280;10076;52.008;4.708;2023-05-01T08:09:57;101528.19;;;18.45;100.00
19831;BME280;10076;52.008;4.708;2023-05-01T08:12:24;101530.16;;;18.71;100.00
19831;BME280;10076;52.008;4.708;2023-05-01T08:14:50;101521.34;;;19.07;100.00
19831;BME280;10076;52.008;4.708;2023-05-01T08:17:15;101523.81;;;19.37;100.00
19831;BME280;10076;52.008;4.708;2023-05-01T08:19:41;101527.94;;;19.58;100.00
19831;BME280;10076;52.008;4.708;2023-05-01T08:22:06;101532.63;;;19.73;100.00
19831;BME280;10076;52.008;4.708;2023-05-01T08:24:31;101525.84;;;19.79;100.00
19831;BME280;10076;52.008;4.708;2023-05-01T08:26:56;101525.69;;;19.80;100.00
19831;BME280;10076;52.008;4.708;2023-05-01T08:29:22;101522.63;;;19.75;100.00
19831;BME280;10076;52.008;4.708;2023-05-01T08:31:47;101531.19;;;19.79;100.00
19831;BME280;10076;52.008;4.708;2023-05-01T08:34:12;101529.81;;;19.75;100.00
19831;BME280;10076;52.008;4.708;2023-05-01T08:36:38;101527.31;;;19.91;100.00
19831;BME280;10076;52.008;4.708;2023-05-01T08:39:03;101531.75;;;19.82;100.00
19831;BME280;10076;52.008;4.708;2023-05-01T08:41:31;101532.25;;;19.68;100.00
19831;BME280;10076;52.008;4.708;2023-05-01T08:43:57;101535.84;;;19.77;100.00
19831;BME280;10076;52.008;4.708;2023-05-01T08:48:56;101537.03;;;19.38;100.00
19831;BME280;10076;52.008;4.708;2023-05-01T08:51:22;101543.50;;;19.45;100.00
19831;BME280;10076;52.008;4.708;2023-05-01T08:53:49;101546.94;;;19.38;100.00
19831;BME280;10076;52.008;4.708;2023-05-01T08:56:17;101549.91;;;19.25;100.00
19831;BME280;10076;52.008;4.708;2023-05-01T08:58:46;101551.81;;;18.77;100.00
19831;BME280;10076;52.008;4.708;2023-05-01T09:01:16;101556.75;;;18.63;100.00
19831;BME280;10076;52.008;4.708;2023-05-01T09:03:43;101548.34;;;18.30;100.00
19831;BME280;10076;52.008;4.708;2023-05-01T09:06:10;101555.72;;;18.07;100.00
19831;BME280;10076;52.008;4.708;2023-05-01T09:08:35;101556.69;;;17.88;100.00
19831;BME280;10076;52.008;4.708;2023-05-01T09:11:02;101556.44;;;17.61;100.00
19831;BME280;10076;52.008;4.708;2023-05-01T09:13:28;101564.50;;;17.40;100.00
19831;BME280;10076;52.008;4.708;2023-05-01T09:15:53;101567.03;;;17.22;100.00
19831;BME280;10076;52.008;4.708;2023-05-01T09:18:18;101562.69;;;17.21;100.00
19831;BME280;10076;52.008;4.708;2023-05-01T09:20:44;101571.25;;;17.15;100.00
19831;BME280;10076;52.008;4.708;2023-05-01T09:23:10;101571.94;;;17.17;100.00
19831;BME280;10076;52.008;4.708;2023-05-01T09:25:35;101569.44;;;17.45;100.00
19831;BME280;10076;52.008;4.708;2023-05-01T09:28:03;101576.06;;;17.50;100.00
19831;BME280;10076;52.008;4.708;2023-05-01T09:30:33;101581.78;;;17.66;100.00
19831;BME280;10076;52.008;4.708;2023-05-01T09:33:09;101575.75;;;17.74;100.00
19831;BME280;10076;52.008;4.708;2023-05-01T09:35:55;101578.03;;;17.78;100.00
19831;BME280;10076;52.008;4.708;2023-05-01T09:38:23;101573.03;;;18.13;100.00
19831;BME280;10076;52.008;4.708;2023-05-01T09:40:49;101572.41;;;18.30;100.00
19831;BME280;10076;52.008;4.708;2023-05-01T09:43:26;101574.22;;;18.48;100.00
19831;BME280;10076;52.008;4.708;2023-05-01T09:46:08;101567.47;;;18.72;100.00
19831;BME280;10076;52.008;4.708;2023-05-01T09:48:35;101576.19;;;18.93;100.00
19831;BME280;10076;52.008;4.708;2023-05-01T09:51:22;101581.41;;;18.76;100.00
19831;BME280;10076;52.008;4.708;2023-05-01T09:53:48;101584.91;;;18.39;100.00
19831;BME280;10076;52.008;4.708;2023-05-01T09:56:13;101587.44;;;17.82;100.00
19831;BME280;10076;52.008;4.708;2023-05-01T09:58:39;101585.78;;;17.51;100.00
19831;BME280;10076;52.008;4.708;2023-05-01T10:01:04;101586.41;;;17.34;100.00
19831;BME280;10076;52.008;4.708;2023-05-01T10:03:30;101589.41;;;17.50;100.00
19831;BME280;10076;52.008;4.708;2023-05-01T10:05:56;101594.75;;;17.50;100.00
19831;BME280;10076;52.008;4.708;2023-05-01T10:08:24;101592.56;;;17.55;100.00
19831;BME280;10076;52.008;4.708;2023-05-01T10:11:03;101588.28;;;17.73;100.00
19831;BME280;10076;52.008;4.708;2023-05-01T10:13:32;101595.03;;;17.47;100.00
19831;BME280;10076;52.008;4.708;2023-05-01T10:15:57;101599.06;;;17.22;100.00
19831;BME280;10076;52.008;4.708;2023-05-01T10:18:26;101599.44;;;17.08;100.00
19831;BME280;10076;52.008;4.708;2023-05-01T10:20:51;101610.53;;;16.92;100.00
19831;BME280;10076;52.008;4.708;2023-05-01T10:23:17;101607.22;;;16.48;100.00
19831;BME280;10076;52.008;4.708;2023-05-01T10:25:43;101606.66;;;16.23;100.00
19831;BME280;10076;52.008;4.708;2023-05-01T10:28:10;101609.94;;;16.37;100.00
19831;BME280;10076;52.008;4.708;2023-05-01T10:30:36;101611.88;;;16.24;100.00
19831;BME280;10076;52.008;4.708;2023-05-01T10:33:03;101605.44;;;16.27;100.00
19831;BME280;10076;52.008;4.708;2023-05-01T10:35:35;101611.41;;;16.19;100.00
19831;BME280;10076;52.008;4.708;2023-05-01T10:38:07;101605.97;;;16.10;100.00
19831;BME280;10076;52.008;4.708;2023-05-01T10:43:27;101621.50;;;16.05;100.00
19831;BME280;10076;52.008;4.708;2023-05-01T10:53:36;101629.78;;;15.13;100.00
19831;BME280;10076;52.008;4.708;2023-05-01T10:56:02;101619.50;;;15.09;100.00
19831;BME280;10076;52.008;4.708;2023-05-01T11:03:59;101609.66;;;15.32;100.00
19831;BME280;10076;52.008;4.708;2023-05-01T11:06:25;101610.50;;;15.44;100.00
19831;BME280;10076;52.008;4.708;2023-05-01T11:08:50;101604.69;;;15.61;100.00
19831;BME280;10076;52.008;4.708;2023-05-01T11:13:57;101601.81;;;15.53;100.00
19831;BME280;10076;52.008;4.708;2023-05-01T11:19:04;101616.19;;;15.83;100.00
19831;BME280;10076;52.008;4.708;2023-05-01T11:21:31;101619.81;;;15.82;100.00
19831;BME280;10076;52.008;4.708;2023-05-01T11:24:01;101612.94;;;15.80;100.00
19831;BME280;10076;52.008;4.708;2023-05-01T11:26:28;101613.50;;;15.94;100.00
19831;BME280;10076;52.008;4.708;2023-05-01T11:28:57;101613.00;;;16.11;100.00
19831;BME280;10076;52.008;4.708;2023-05-01T11:31:24;101607.91;;;16.30;100.00
19831;BME280;10076;52.008;4.708;2023-05-01T11:33:49;101616.69;;;16.41;100.00
19831;BME280;10076;52.008;4.708;2023-05-01T11:36:15;101609.28;;;16.45;100.00
19831;BME280;10076;52.008;4.708;2023-05-01T11:38:50;101608.00;;;16.39;100.00
19831;BME280;10076;52.008;4.708;2023-05-01T11:41:20;101615.78;;;16.31;100.00
19831;BME280;10076;52.008;4.708;2023-05-01T11:43:49;101605.88;;;16.54;100.00
19831;BME280;10076;52.008;4.708;2023-05-01T11:46:25;101609.03;;;16.79;100.00
19831;BME280;10076;52.008;4.708;2023-05-01T11:48:59;101605.00;;;16.84;100.00
19831;BME280;10076;52.008;4.708;2023-05-01T11:51:26;101600.00;;;17.11;100.00
19831;BME280;10076;52.008;4.708;2023-05-01T11:53:58;101606.59;;;17.28;100.00
19831;BME280;10076;52.008;4.708;2023-05-01T11:56:25;101596.34;;;17.53;100.00
19831;BME280;10076;52.008;4.708;2023-05-01T11:58:50;101601.22;;;17.78;100.00
19831;BME280;10076;52.008;4.708;2023-05-01T12:01:15;101608.91;;;18.10;100.00
19831;BME280;10076;52.008;4.708;2023-05-01T12:03:42;101603.94;;;18.64;100.00
19831;BME280;10076;52.008;4.708;2023-05-01T12:06:09;101607.03;;;18.97;100.00
19831;BME280;10076;52.008;4.708;2023-05-01T12:08:35;101607.56;;;19.29;100.00
19831;BME280;10076;52.008;4.708;2023-05-01T12:11:00;101600.13;;;19.59;100.00
19831;BME280;10076;52.008;4.708;2023-05-01T12:13:26;101603.09;;;20.19;100.00
19831;BME280;10076;52.008;4.708;2023-05-01T12:15:53;101609.97;;;20.66;100.00
19831;BME280;10076;52.008;4.708;2023-05-01T12:18:18;101606.31;;;21.10;100.00
19831;BME280;10076;52.008;4.708;2023-05-01T12:20:53;101607.56;;;22.07;100.00
19831;BME280;10076;52.008;4.708;2023-05-01T12:23:28;101604.38;;;23.48;100.00
19831;BME280;10076;52.008;4.708;2023-05-01T12:25:54;101614.31;;;25.95;100.00
19831;BME280;10076;52.008;4.708;2023-05-01T12:28:19;101610.78;;;28.22;100.00
19831;BME280;10076;52.008;4.708;2023-05-01T12:30:46;101615.59;;;28.93;100.00
19831;BME280;10076;52.008;4.708;2023-05-01T12:33:15;101619.19;;;28.93;100.00
19831;BME280;10076;52.008;4.708;2023-05-01T12:35:41;101619.59;;;28.84;100.00
19831;BME280;10076;52.008;4.708;2023-05-01T12:38:20;101610.28;;;28.59;100.00
19831;BME280;10076;52.008;4.708;2023-05-01T12:40:50;101603.22;;;28.71;99.42
19831;BME280;10076;52.008;4.708;2023-05-01T12:43:18;101610.13;;;29.77;100.00
19831;BME280;10076;52.008;4.708;2023-05-01T12:45:44;101617.59;;;30.57;91.19
19831;BME280;10076;52.008;4.708;2023-05-01T12:48:12;101617.38;;;30.96;91.63
19831;BME280;10076;52.008;4.708;2023-05-01T12:50:39;101609.81;;;30.67;91.12
19831;BME280;10076;52.008;4.708;2023-05-01T12:53:05;101614.31;;;30.42;93.78
19831;BME280;10076;52.008;4.708;2023-05-01T12:55:41;101609.09;;;30.34;85.61
19831;BME280;10076;52.008;4.708;2023-05-01T12:58:06;101616.75;;;30.13;87.00
19831;BME280;10076;52.008;4.708;2023-05-01T13:00:41;101610.97;;;29.71;88.33
19831;BME280;10076;52.008;4.708;2023-05-01T13:03:07;101614.56;;;28.87;86.88
19831;BME280;10076;52.008;4.708;2023-05-01T13:05:32;101607.13;;;27.96;92.85
19831;BME280;10076;52.008;4.708;2023-05-01T13:07:58;101608.13;;;26.86;97.89
19831;BME280;10076;52.008;4.708;2023-05-01T13:10:29;101606.41;;;26.29;97.10
19831;BME280;10076;52.008;4.708;2023-05-01T13:12:57;101610.69;;;25.88;100.00
19831;BME280;10076;52.008;4.708;2023-05-01T13:15:23;101612.56;;;25.87;100.00